sensor_id;sensor_type;location;lat;lon;timestamp;P1;durP1;ratioP1;P2;durP2;ratioP2
1262;SDS011;62267;50.112;8.704;2022-12-31T00:01:06;2.90;;;2.70;;
1262;SDS011;62267;50.112;8.704;2022-12-31T00:03:34;4.90;;;3.33;;
1262;SDS011;62267;50.112;8.704;2022-12-31T00:06:11;3.07;;;2.83;;
1262;SDS011;62267;50.112;8.704;2022-12-31T00:08:38;3.97;;;3.30;;
1262;SDS011;62267;50.112;8.704;2022-12-31T00:11:07;2.30;;;2.10;;
1262;SDS011;62267;50.112;8.704;2022-12-31T00:13:35;2.70;;;2.50;;
1262;SDS011;62267;50.112;8.704;2022-12-31T00:16:06;4.10;;;2.20;;
1262;SDS011;62267;50.112;8.704;2022-12-31T00:18:37;2.70;;;2.50;;
1262;SDS011;62267;50.112;8.704;2022-12-31T00:21:08;2.60;;;2.07;;
1262;SDS011;62267;50.112;8.704;2022-12-31T00:23:36;2.30;;;2.20;;
1262;SDS011;62267;50.112;8.704;2022-12-31T00:26:04;2.10;;;2.00;;
1262;SDS011;62267;50.112;8.704;2022-12-31T00:28:32;2.20;;;2.10;;
1262;SDS011;62267;50.112;8.704;2022-12-31T00:31:18;2.23;;;2.07;;
1262;SDS011;62267;50.112;8.704;2022-12-31T00:33:46;2.67;;;2.47;;
1262;SDS011;62267;50.112;8.704;2022-12-31T00:36:15;2.67;;;2.47;;
1262;SDS011;62267;50.112;8.704;2022-12-31T00:38:43;2.40;;;2.20;;
1262;SDS011;62267;50.112;8.704;2022-12-31T00:41:12;2.20;;;2.10;;
1262;SDS011;62267;50.112;8.704;2022-12-31T00:43:39;2.70;;;2.50;;
1262;SDS011;62267;50.112;8.704;2022-12-31T00:46:07;2.43;;;2.33;;
1262;SDS011;62267;50.112;8.704;2022-12-31T00:48:36;2.20;;;2.10;;
1262;SDS011;62267;50.112;8.704;2022-12-31T00:51:06;2.20;;;2.10;;
1262;SDS011;62267;50.112;8.704;2022-12-31T00:53:33;2.33;;;2.13;;
1262;SDS011;62267;50.112;8.704;2022-12-31T00:56:02;2.13;;;1.97;;
1262;SDS011;62267;50.112;8.704;2022-12-31T00:58:29;2.53;;;2.33;;
1262;SDS011;62267;50.112;8.704;2022-12-31T01:00:57;2.60;;;2.00;;
1262;SDS011;62267;50.112;8.704;2022-12-31T01:03:24;2.00;;;1.90;;
1262;SDS011;62267;50.112;8.704;2022-12-31T01:05:52;1.70;;;1.50;;
1262;SDS011;62267;50.112;8.704;2022-12-31T01:08:24;2.83;;;2.63;;
1262;SDS011;62267;50.112;8.704;2022-12-31T01:10:51;2.10;;;2.00;;
1262;SDS011;62267;50.112;8.704;2022-12-31T01:13:38;2.70;;;2.40;;
1262;SDS011;62267;50.112;8.704;2022-12-31T01:16:08;2.43;;;2.10;;
1262;SDS011;62267;50.112;8.704;2022-12-31T01:18:36;2.07;;;1.97;;
1262;SDS011;62267;50.112;8.704;2022-12-31T01:21:05;2.50;;;2.30;;
1262;SDS011;62267;50.112;8.704;2022-12-31T01:23:33;2.27;;;2.07;;
1262;SDS011;62267;50.112;8.704;2022-12-31T01:26:01;1.83;;;1.60;;
1262;SDS011;62267;50.112;8.704;2022-12-31T01:28:31;2.10;;;2.00;;
1262;SDS011;62267;50.112;8.704;2022-12-31T01:31:01;2.30;;;2.20;;
1262;SDS011;62267;50.112;8.704;2022-12-31T01:33:29;1.83;;;1.73;;
1262;SDS011;62267;50.112;8.704;2022-12-31T01:36:00;1.90;;;1.80;;
1262;SDS011;62267;50.112;8.704;2022-12-31T01:38:28;2.50;;;2.30;;
1262;SDS011;62267;50.112;8.704;2022-12-31T01:40:56;2.13;;;2.00;;
1262;SDS011;62267;50.112;8.704;2022-12-31T01:43:39;2.07;;;1.97;;
1262;SDS011;62267;50.112;8.704;2022-12-31T01:46:08;1.80;;;1.70;;
1262;SDS011;62267;50.112;8.704;2022-12-31T01:48:37;4.67;;;2.73;;
1262;SDS011;62267;50.112;8.704;2022-12-31T01:51:05;2.27;;;2.07;;
1262;SDS011;62267;50.112;8.704;2022-12-31T01:53:35;2.73;;;2.50;;
1262;SDS011;62267;50.112;8.704;2022-12-31T01:56:06;2.50;;;2.30;;
1262;SDS011;62267;50.112;8.704;2022-12-31T01:58:43;2.20;;;2.00;;
1262;SDS011;62267;50.112;8.704;2022-12-31T02:01:12;2.10;;;2.00;;
1262;SDS011;62267;50.112;8.704;2022-12-31T02:03:42;2.20;;;2.00;;
1262;SDS011;62267;50.112;8.704;2022-12-31T02:06:10;2.27;;;2.07;;
1262;SDS011;62267;50.112;8.704;2022-12-31T02:08:40;2.00;;;1.80;;
1262;SDS011;62267;50.112;8.704;2022-12-31T02:13:55;3.00;;;2.20;;
1262;SDS011;62267;50.112;8.704;2022-12-31T02:22:02;3.27;;;2.40;;
1262;SDS011;62267;50.112;8.704;2022-12-31T02:24:35;1.97;;;1.83;;
1262;SDS011;62267;50.112;8.704;2022-12-31T02:27:18;2.00;;;1.90;;
1262;SDS011;62267;50.112;8.704;2022-12-31T02:30:04;2.67;;;2.47;;
1262;SDS011;62267;50.112;8.704;2022-12-31T02:33:07;3.00;;;2.80;;
1262;SDS011;62267;50.112;8.704;2022-12-31T02:35:28;2.03;;;1.93;;
1262;SDS011;62267;50.112;8.704;2022-12-31T02:38:03;2.03;;;1.80;;
1262;SDS011;62267;50.112;8.704;2022-12-31T02:40:33;2.00;;;1.90;;
1262;SDS011;62267;50.112;8.704;2022-12-31T02:43:03;2.43;;;2.23;;
1262;SDS011;62267;50.112;8.704;2022-12-31T02:45:32;2.43;;;2.23;;
1262;SDS011;62267;50.112;8.704;2022-12-31T02:48:03;2.40;;;2.17;;
1262;SDS011;62267;50.112;8.704;2022-12-31T02:53:17;2.67;;;2.00;;
1262;SDS011;62267;50.112;8.704;2022-12-31T02:55:48;2.30;;;2.10;;
1262;SDS011;62267;50.112;8.704;2022-12-31T02:58:25;2.37;;;2.17;;
1262;SDS011;62267;50.112;8.704;2022-12-31T03:01:18;3.13;;;2.23;;
1262;SDS011;62267;50.112;8.704;2022-12-31T03:04:06;2.60;;;2.40;;
1262;SDS011;62267;50.112;8.704;2022-12-31T03:06:52;2.50;;;2.30;;
1262;SDS011;62267;50.112;8.704;2022-12-31T03:09:20;2.93;;;2.60;;
1262;SDS011;62267;50.112;8.704;2022-12-31T03:11:47;4.03;;;2.80;;
1262;SDS011;62267;50.112;8.704;2022-12-31T03:14:33;2.50;;;2.30;;
1262;SDS011;62267;50.112;8.704;2022-12-31T03:17:00;3.90;;;2.40;;
1262;SDS011;62267;50.112;8.704;2022-12-31T03:19:28;4.43;;;3.53;;
1262;SDS011;62267;50.112;8.704;2022-12-31T03:22:14;2.57;;;2.37;;
1262;SDS011;62267;50.112;8.704;2022-12-31T03:25:02;2.83;;;2.50;;
1262;SDS011;62267;50.112;8.704;2022-12-31T03:27:50;2.50;;;2.30;;
1262;SDS011;62267;50.112;8.704;2022-12-31T03:30:18;3.47;;;2.63;;
1262;SDS011;62267;50.112;8.704;2022-12-31T03:32:47;2.60;;;2.33;;
1262;SDS011;62267;50.112;8.704;2022-12-31T03:35:15;3.00;;;2.77;;
1262;SDS011;62267;50.112;8.704;2022-12-31T03:37:44;3.00;;;2.70;;
1262;SDS011;62267;50.112;8.704;2022-12-31T03:40:12;2.90;;;2.60;;
1262;SDS011;62267;50.112;8.704;2022-12-31T03:42:39;4.07;;;2.37;;
1262;SDS011;62267;50.112;8.704;2022-12-31T03:45:07;3.13;;;2.87;;
1262;SDS011;62267;50.112;8.704;2022-12-31T03:47:35;2.70;;;2.50;;
1262;SDS011;62267;50.112;8.704;2022-12-31T03:50:03;5.67;;;2.83;;
1262;SDS011;62267;50.112;8.704;2022-12-31T03:52:30;2.50;;;2.30;;
1262;SDS011;62267;50.112;8.704;2022-12-31T03:54:57;2.33;;;2.23;;
1262;SDS011;62267;50.112;8.704;2022-12-31T03:57:24;2.90;;;2.50;;
1262;SDS011;62267;50.112;8.704;2022-12-31T03:59:51;2.90;;;2.60;;
1262;SDS011;62267;50.112;8.704;2022-12-31T04:02:19;2.80;;;2.50;;
1262;SDS011;62267;50.112;8.704;2022-12-31T04:04:54;2.93;;;2.67;;
1262;SDS011;62267;50.112;8.704;2022-12-31T04:07:21;3.07;;;2.20;;
1262;SDS011;62267;50.112;8.704;2022-12-31T04:09:48;2.67;;;2.40;;
1262;SDS011;62267;50.112;8.704;2022-12-31T04:12:16;2.40;;;2.20;;
1262;SDS011;62267;50.112;8.704;2022-12-31T04:14:43;2.63;;;2.43;;
1262;SDS011;62267;50.112;8.704;2022-12-31T04:17:10;2.47;;;2.27;;
1262;SDS011;62267;50.112;8.704;2022-12-31T04:19:37;2.00;;;1.90;;
1262;SDS011;62267;50.112;8.704;2022-12-31T04:22:04;2.87;;;2.63;;
1262;SDS011;62267;50.112;8.704;2022-12-31T04:24:32;2.47;;;2.27;;
1262;SDS011;62267;50.112;8.704;2022-12-31T04:26:59;2.70;;;2.50;;
1262;SDS011;62267;50.112;8.704;2022-12-31T04:29:32;2.60;;;2.40;;
1262;SDS011;62267;50.112;8.704;2022-12-31T04:31:59;2.37;;;2.27;;
1262;SDS011;62267;50.112;8.704;2022-12-31T04:34:27;3.07;;;2.60;;
1262;SDS011;62267;50.112;8.704;2022-12-31T04:36:54;2.40;;;2.30;;
1262;SDS011;62267;50.112;8.704;2022-12-31T04:39:22;2.83;;;2.63;;
1262;SDS011;62267;50.112;8.704;2022-12-31T04:41:49;2.33;;;2.20;;
1262;SDS011;62267;50.112;8.704;2022-12-31T04:44:16;2.50;;;2.40;;
1262;SDS011;62267;50.112;8.704;2022-12-31T04:46:43;2.87;;;2.60;;
1262;SDS011;62267;50.112;8.704;2022-12-31T04:49:11;4.13;;;2.57;;
1262;SDS011;62267;50.112;8.704;2022-12-31T04:51:38;3.73;;;2.20;;
1262;SDS011;62267;50.112;8.704;2022-12-31T04:54:05;2.70;;;2.47;;
1262;SDS011;62267;50.112;8.704;2022-12-31T04:56:32;2.80;;;2.40;;
1262;SDS011;62267;50.112;8.704;2022-12-31T04:59:03;2.60;;;2.40;;
1262;SDS011;62267;50.112;8.704;2022-12-31T05:01:30;2.67;;;2.30;;
1262;SDS011;62267;50.112;8.704;2022-12-31T05:03:58;2.90;;;2.40;;
1262;SDS011;62267;50.112;8.704;2022-12-31T05:06:26;2.13;;;2.03;;
1262;SDS011;62267;50.112;8.704;2022-12-31T05:08:53;2.23;;;2.13;;
1262;SDS011;62267;50.112;8.704;2022-12-31T05:11:20;3.23;;;2.33;;
1262;SDS011;62267;50.112;8.704;2022-12-31T05:13:48;2.53;;;2.40;;
1262;SDS011;62267;50.112;8.704;2022-12-31T05:16:15;2.60;;;2.50;;
1262;SDS011;62267;50.112;8.704;2022-12-31T05:18:42;3.83;;;2.63;;
1262;SDS011;62267;50.112;8.704;2022-12-31T05:21:09;2.50;;;2.30;;
1262;SDS011;62267;50.112;8.704;2022-12-31T05:23:41;3.90;;;2.90;;
1262;SDS011;62267;50.112;8.704;2022-12-31T05:26:08;4.60;;;2.50;;
1262;SDS011;62267;50.112;8.704;2022-12-31T05:28:35;3.07;;;2.37;;
1262;SDS011;62267;50.112;8.704;2022-12-31T05:31:02;2.57;;;2.43;;
1262;SDS011;62267;50.112;8.704;2022-12-31T05:33:29;2.50;;;2.30;;
1262;SDS011;62267;50.112;8.704;2022-12-31T05:35:57;2.90;;;2.20;;
1262;SDS011;62267;50.112;8.704;2022-12-31T05:38:25;2.77;;;2.40;;
1262;SDS011;62267;50.112;8.704;2022-12-31T05:40:59;2.93;;;2.60;;
1262;SDS011;62267;50.112;8.704;2022-12-31T05:43:26;2.30;;;2.10;;
1262;SDS011;62267;50.112;8.704;2022-12-31T05:45:54;3.97;;;2.50;;
1262;SDS011;62267;50.112;8.704;2022-12-31T05:48:21;2.50;;;2.30;;
1262;SDS011;62267;50.112;8.704;2022-12-31T05:50:49;2.30;;;2.10;;
1262;SDS011;62267;50.112;8.704;2022-12-31T05:53:16;2.30;;;2.10;;
1262;SDS011;62267;50.112;8.704;2022-12-31T05:55:44;2.30;;;2.20;;
1262;SDS011;62267;50.112;8.704;2022-12-31T05:58:12;2.53;;;2.30;;
1262;SDS011;62267;50.112;8.704;2022-12-31T06:00:39;3.30;;;2.30;;
1262;SDS011;62267;50.112;8.704;2022-12-31T06:03:06;3.80;;;2.27;;
1262;SDS011;62267;50.112;8.704;2022-12-31T06:05:34;3.60;;;3.30;;
1262;SDS011;62267;50.112;8.704;2022-12-31T06:08:01;4.63;;;2.43;;
1262;SDS011;62267;50.112;8.704;2022-12-31T06:10:28;3.00;;;2.73;;
1262;SDS011;62267;50.112;8.704;2022-12-31T06:12:56;2.37;;;2.27;;
1262;SDS011;62267;50.112;8.704;2022-12-31T06:15:23;2.63;;;2.43;;
1262;SDS011;62267;50.112;8.704;2022-12-31T06:17:50;2.30;;;2.20;;
1262;SDS011;62267;50.112;8.704;2022-12-31T06:20:17;3.93;;;2.30;;
1262;SDS011;62267;50.112;8.704;2022-12-31T06:22:44;2.30;;;2.10;;
1262;SDS011;62267;50.112;8.704;2022-12-31T06:25:12;4.37;;;2.97;;
1262;SDS011;62267;50.112;8.704;2022-12-31T06:27:39;2.93;;;2.73;;
1262;SDS011;62267;50.112;8.704;2022-12-31T06:30:06;3.07;;;2.77;;
1262;SDS011;62267;50.112;8.704;2022-12-31T06:32:34;2.30;;;2.17;;
1262;SDS011;62267;50.112;8.704;2022-12-31T06:35:01;3.33;;;2.63;;
1262;SDS011;62267;50.112;8.704;2022-12-31T06:37:28;2.07;;;1.97;;
1262;SDS011;62267;50.112;8.704;2022-12-31T06:39:58;2.60;;;2.40;;
1262;SDS011;62267;50.112;8.704;2022-12-31T06:42:29;2.70;;;2.50;;
1262;SDS011;62267;50.112;8.704;2022-12-31T06:44:57;2.57;;;2.37;;
1262;SDS011;62267;50.112;8.704;2022-12-31T06:47:24;2.50;;;2.30;;
1262;SDS011;62267;50.112;8.704;2022-12-31T06:49:51;2.50;;;2.30;;
1262;SDS011;62267;50.112;8.704;2022-12-31T06:52:19;2.57;;;2.23;;
1262;SDS011;62267;50.112;8.704;2022-12-31T06:54:47;2.37;;;2.27;;
1262;SDS011;62267;50.112;8.704;2022-12-31T06:57:14;2.93;;;2.50;;
1262;SDS011;62267;50.112;8.704;2022-12-31T06:59:41;2.30;;;2.20;;
1262;SDS011;62267;50.112;8.704;2022-12-31T07:02:16;2.30;;;2.10;;
1262;SDS011;62267;50.112;8.704;2022-12-31T07:04:50;2.37;;;2.27;;
1262;SDS011;62267;50.112;8.704;2022-12-31T07:07:25;2.30;;;2.20;;
1262;SDS011;62267;50.112;8.704;2022-12-31T07:15:30;2.37;;;2.23;;
1262;SDS011;62267;50.112;8.704;2022-12-31T07:18:02;2.10;;;2.00;;
1262;SDS011;62267;50.112;8.704;2022-12-31T07:20:32;2.63;;;2.43;;
1262;SDS011;62267;50.112;8.704;2022-12-31T07:22:59;2.20;;;2.00;;
1262;SDS011;62267;50.112;8.704;2022-12-31T07:25:28;2.20;;;2.10;;
1262;SDS011;62267;50.112;8.704;2022-12-31T07:30:50;2.87;;;2.20;;
1262;SDS011;62267;50.112;8.704;2022-12-31T07:35:58;2.87;;;2.67;;
1262;SDS011;62267;50.112;8.704;2022-12-31T07:38:37;2.70;;;2.20;;
1262;SDS011;62267;50.112;8.704;2022-12-31T07:41:10;2.57;;;2.37;;
1262;SDS011;62267;50.112;8.704;2022-12-31T07:43:47;2.90;;;2.43;;
1262;SDS011;62267;50.112;8.704;2022-12-31T07:46:27;2.27;;;2.17;;
1262;SDS011;62267;50.112;8.704;2022-12-31T07:48:57;2.20;;;2.10;;
1262;SDS011;62267;50.112;8.704;2022-12-31T07:51:27;2.20;;;2.10;;
1262;SDS011;62267;50.112;8.704;2022-12-31T07:53:54;3.20;;;2.40;;
1262;SDS011;62267;50.112;8.704;2022-12-31T07:56:21;2.57;;;2.27;;
1262;SDS011;62267;50.112;8.704;2022-12-31T07:58:56;2.60;;;2.40;;
1262;SDS011;62267;50.112;8.704;2022-12-31T08:02:11;2.40;;;2.20;;
1262;SDS011;62267;50.112;8.704;2022-12-31T08:04:31;2.50;;;2.40;;
1262;SDS011;62267;50.112;8.704;2022-12-31T08:07:10;2.80;;;2.60;;
1262;SDS011;62267;50.112;8.704;2022-12-31T08:09:45;2.70;;;2.50;;
1262;SDS011;62267;50.112;8.704;2022-12-31T08:12:13;3.97;;;2.30;;
1262;SDS011;62267;50.112;8.704;2022-12-31T08:14:46;2.93;;;2.73;;
1262;SDS011;62267;50.112;8.704;2022-12-31T08:17:14;2.87;;;2.53;;
1262;SDS011;62267;50.112;8.704;2022-12-31T08:19:43;4.10;;;2.90;;
1262;SDS011;62267;50.112;8.704;2022-12-31T08:27:37;3.60;;;3.30;;
1262;SDS011;62267;50.112;8.704;2022-12-31T08:35:06;2.90;;;2.70;;
1262;SDS011;62267;50.112;8.704;2022-12-31T08:37:43;3.50;;;3.20;;
1262;SDS011;62267;50.112;8.704;2022-12-31T08:40:15;2.70;;;2.50;;
1262;SDS011;62267;50.112;8.704;2022-12-31T08:42:52;3.70;;;2.90;;
1262;SDS011;62267;50.112;8.704;2022-12-31T08:48:00;3.17;;;2.87;;
1262;SDS011;62267;50.112;8.704;2022-12-31T08:50:29;3.07;;;2.87;;
1262;SDS011;62267;50.112;8.704;2022-12-31T08:52:56;2.60;;;2.40;;
1262;SDS011;62267;50.112;8.704;2022-12-31T08:55:23;3.07;;;2.80;;
1262;SDS011;62267;50.112;8.704;2022-12-31T08:58:02;3.50;;;3.20;;
1262;SDS011;62267;50.112;8.704;2022-12-31T09:00:34;3.87;;;3.07;;
1262;SDS011;62267;50.112;8.704;2022-12-31T09:03:13;3.57;;;3.00;;
1262;SDS011;62267;50.112;8.704;2022-12-31T09:13:52;5.30;;;2.80;;
1262;SDS011;62267;50.112;8.704;2022-12-31T09:18:55;3.30;;;3.07;;
1262;SDS011;62267;50.112;8.704;2022-12-31T09:21:22;3.53;;;2.97;;
1262;SDS011;62267;50.112;8.704;2022-12-31T09:23:49;3.37;;;3.17;;
1262;SDS011;62267;50.112;8.704;2022-12-31T09:26:28;3.03;;;2.80;;
1262;SDS011;62267;50.112;8.704;2022-12-31T09:31:54;3.17;;;2.97;;
1262;SDS011;62267;50.112;8.704;2022-12-31T09:34:41;5.50;;;2.87;;
1262;SDS011;62267;50.112;8.704;2022-12-31T09:37:20;3.07;;;2.77;;
1262;SDS011;62267;50.112;8.704;2022-12-31T09:39:50;3.50;;;3.30;;
1262;SDS011;62267;50.112;8.704;2022-12-31T09:42:35;3.10;;;2.80;;
1262;SDS011;62267;50.112;8.704;2022-12-31T09:45:14;3.27;;;3.00;;
1262;SDS011;62267;50.112;8.704;2022-12-31T09:55:43;4.37;;;2.83;;
1262;SDS011;62267;50.112;8.704;2022-12-31T10:01:19;3.23;;;3.00;;
1262;SDS011;62267;50.112;8.704;2022-12-31T10:03:57;3.63;;;3.33;;
1262;SDS011;62267;50.112;8.704;2022-12-31T10:09:18;3.53;;;2.63;;
1262;SDS011;62267;50.112;8.704;2022-12-31T10:11:59;3.30;;;3.00;;
1262;SDS011;62267;50.112;8.704;2022-12-31T10:14:33;2.90;;;2.70;;
1262;SDS011;62267;50.112;8.704;2022-12-31T10:27:36;9.23;;;3.40;;
1262;SDS011;62267;50.112;8.704;2022-12-31T10:32:43;3.20;;;2.90;;
1262;SDS011;62267;50.112;8.704;2022-12-31T10:43:25;2.97;;;2.77;;
1262;SDS011;62267;50.112;8.704;2022-12-31T10:51:39;3.23;;;3.03;;
1262;SDS011;62267;50.112;8.704;2022-12-31T10:54:14;3.83;;;3.07;;
1262;SDS011;62267;50.112;8.704;2022-12-31T10:59:45;3.00;;;2.70;;
1262;SDS011;62267;50.112;8.704;2022-12-31T11:15:51;4.83;;;3.20;;
1262;SDS011;62267;50.112;8.704;2022-12-31T11:20:56;2.83;;;2.60;;
1262;SDS011;62267;50.112;8.704;2022-12-31T11:23:38;3.07;;;2.87;;
1262;SDS011;62267;50.112;8.704;2022-12-31T11:29:08;4.23;;;3.20;;
1262;SDS011;62267;50.112;8.704;2022-12-31T11:37:03;5.53;;;3.27;;
1262;SDS011;62267;50.112;8.704;2022-12-31T11:42:18;3.43;;;3.20;;
1262;SDS011;62267;50.112;8.704;2022-12-31T11:47:21;3.13;;;2.93;;
1262;SDS011;62267;50.112;8.704;2022-12-31T11:49:59;4.80;;;2.83;;
1262;SDS011;62267;50.112;8.704;2022-12-31T11:52:43;5.50;;;3.40;;
1262;SDS011;62267;50.112;8.704;2022-12-31T11:55:18;3.07;;;2.77;;
1262;SDS011;62267;50.112;8.704;2022-12-31T11:57:50;3.33;;;3.03;;
1262;SDS011;62267;50.112;8.704;2022-12-31T12:00:25;4.90;;;2.60;;
1262;SDS011;62267;50.112;8.704;2022-12-31T12:02:56;5.93;;;2.97;;
1262;SDS011;62267;50.112;8.704;2022-12-31T12:05:25;3.83;;;3.43;;
1262;SDS011;62267;50.112;8.704;2022-12-31T12:07:52;4.63;;;3.23;;
1262;SDS011;62267;50.112;8.704;2022-12-31T12:10:25;5.77;;;3.40;;
1262;SDS011;62267;50.112;8.704;2022-12-31T12:13:08;2.73;;;2.53;;
1262;SDS011;62267;50.112;8.704;2022-12-31T12:15:36;2.70;;;2.50;;
1262;SDS011;62267;50.112;8.704;2022-12-31T12:18:13;5.30;;;3.13;;
1262;SDS011;62267;50.112;8.704;2022-12-31T12:20:44;3.07;;;2.87;;
1262;SDS011;62267;50.112;8.704;2022-12-31T12:23:13;2.90;;;2.70;;
1262;SDS011;62267;50.112;8.704;2022-12-31T12:25:42;3.10;;;2.90;;
1262;SDS011;62267;50.112;8.704;2022-12-31T12:28:40;3.00;;;2.70;;
1262;SDS011;62267;50.112;8.704;2022-12-31T12:30:58;3.60;;;2.87;;
1262;SDS011;62267;50.112;8.704;2022-12-31T12:33:27;5.40;;;3.20;;
1262;SDS011;62267;50.112;8.704;2022-12-31T12:36:11;3.30;;;3.00;;
1262;SDS011;62267;50.112;8.704;2022-12-31T12:38:39;6.50;;;2.90;;
1262;SDS011;62267;50.112;8.704;2022-12-31T12:41:09;3.17;;;2.87;;
1262;SDS011;62267;50.112;8.704;2022-12-31T12:43:37;2.63;;;2.50;;
1262;SDS011;62267;50.112;8.704;2022-12-31T12:46:17;3.83;;;2.80;;
1262;SDS011;62267;50.112;8.704;2022-12-31T12:48:45;3.70;;;2.80;;
1262;SDS011;62267;50.112;8.704;2022-12-31T12:51:19;3.50;;;2.60;;
1262;SDS011;62267;50.112;8.704;2022-12-31T12:53:50;2.90;;;2.70;;
1262;SDS011;62267;50.112;8.704;2022-12-31T12:56:25;3.20;;;2.53;;
1262;SDS011;62267;50.112;8.704;2022-12-31T13:01:35;3.10;;;2.80;;
1262;SDS011;62267;50.112;8.704;2022-12-31T13:04:13;3.30;;;3.00;;
1262;SDS011;62267;50.112;8.704;2022-12-31T13:07:04;4.07;;;2.90;;
1262;SDS011;62267;50.112;8.704;2022-12-31T13:19:59;2.83;;;2.63;;
1262;SDS011;62267;50.112;8.704;2022-12-31T13:22:33;3.00;;;2.70;;
1262;SDS011;62267;50.112;8.704;2022-12-31T13:27:36;3.40;;;2.57;;
1262;SDS011;62267;50.112;8.704;2022-12-31T13:30:16;2.63;;;2.43;;
1262;SDS011;62267;50.112;8.704;2022-12-31T13:32:48;2.47;;;2.37;;
1262;SDS011;62267;50.112;8.704;2022-12-31T13:35:29;3.97;;;2.87;;
1262;SDS011;62267;50.112;8.704;2022-12-31T13:38:00;2.60;;;2.50;;
1262;SDS011;62267;50.112;8.704;2022-12-31T13:41:18;2.40;;;2.30;;
1262;SDS011;62267;50.112;8.704;2022-12-31T13:43:30;2.50;;;2.30;;
1262;SDS011;62267;50.112;8.704;2022-12-31T13:46:09;5.37;;;2.40;;
1262;SDS011;62267;50.112;8.704;2022-12-31T13:48:41;2.90;;;2.43;;
1262;SDS011;62267;50.112;8.704;2022-12-31T13:51:13;3.17;;;2.97;;
1262;SDS011;62267;50.112;8.704;2022-12-31T13:53:50;2.37;;;2.23;;
1262;SDS011;62267;50.112;8.704;2022-12-31T13:56:21;4.50;;;2.33;;
1262;SDS011;62267;50.112;8.704;2022-12-31T13:58:52;2.93;;;2.23;;
1262;SDS011;62267;50.112;8.704;2022-12-31T14:07:09;2.90;;;2.70;;
1262;SDS011;62267;50.112;8.704;2022-12-31T14:09:37;2.97;;;2.17;;
1262;SDS011;62267;50.112;8.704;2022-12-31T14:17:17;4.63;;;2.50;;
1262;SDS011;62267;50.112;8.704;2022-12-31T14:22:18;2.37;;;2.27;;
1262;SDS011;62267;50.112;8.704;2022-12-31T14:24:47;3.23;;;2.30;;
1262;SDS011;62267;50.112;8.704;2022-12-31T14:29:56;2.53;;;2.33;;
1262;SDS011;62267;50.112;8.704;2022-12-31T14:32:34;2.30;;;2.20;;
1262;SDS011;62267;50.112;8.704;2022-12-31T14:38:25;3.00;;;2.53;;
1262;SDS011;62267;50.112;8.704;2022-12-31T14:40:40;3.80;;;2.60;;
1262;SDS011;62267;50.112;8.704;2022-12-31T14:43:20;3.17;;;2.50;;
1262;SDS011;62267;50.112;8.704;2022-12-31T14:45:59;3.07;;;2.73;;
1262;SDS011;62267;50.112;8.704;2022-12-31T14:48:46;2.70;;;2.50;;
1262;SDS011;62267;50.112;8.704;2022-12-31T14:51:15;9.70;;;4.70;;
1262;SDS011;62267;50.112;8.704;2022-12-31T14:53:52;7.13;;;4.33;;
1262;SDS011;62267;50.112;8.704;2022-12-31T14:58:55;5.03;;;2.90;;
1262;SDS011;62267;50.112;8.704;2022-12-31T15:01:22;3.10;;;2.60;;
1262;SDS011;62267;50.112;8.704;2022-12-31T15:03:52;3.70;;;2.57;;
1262;SDS011;62267;50.112;8.704;2022-12-31T15:16:49;3.40;;;2.77;;
1262;SDS011;62267;50.112;8.704;2022-12-31T15:21:50;2.70;;;2.50;;
1262;SDS011;62267;50.112;8.704;2022-12-31T15:24:21;3.77;;;2.80;;
1262;SDS011;62267;50.112;8.704;2022-12-31T15:26:54;5.27;;;2.90;;
1262;SDS011;62267;50.112;8.704;2022-12-31T15:29:26;4.00;;;3.70;;
1262;SDS011;62267;50.112;8.704;2022-12-31T15:31:54;2.77;;;2.57;;
1262;SDS011;62267;50.112;8.704;2022-12-31T15:34:31;2.80;;;2.60;;
1262;SDS011;62267;50.112;8.704;2022-12-31T15:37:04;4.07;;;3.60;;
1262;SDS011;62267;50.112;8.704;2022-12-31T15:42:02;3.03;;;2.77;;
1262;SDS011;62267;50.112;8.704;2022-12-31T15:44:52;2.90;;;2.70;;
1262;SDS011;62267;50.112;8.704;2022-12-31T15:47:33;3.90;;;3.27;;
1262;SDS011;62267;50.112;8.704;2022-12-31T15:50:03;2.57;;;2.33;;
1262;SDS011;62267;50.112;8.704;2022-12-31T15:52:38;2.93;;;2.73;;
1262;SDS011;62267;50.112;8.704;2022-12-31T15:55:07;4.10;;;2.47;;
1262;SDS011;62267;50.112;8.704;2022-12-31T15:57:42;2.67;;;2.47;;
1262;SDS011;62267;50.112;8.704;2022-12-31T16:00:17;3.23;;;3.03;;
1262;SDS011;62267;50.112;8.704;2022-12-31T16:02:45;3.30;;;3.00;;
1262;SDS011;62267;50.112;8.704;2022-12-31T16:05:19;3.40;;;3.10;;
1262;SDS011;62267;50.112;8.704;2022-12-31T16:07:47;5.33;;;3.70;;
1262;SDS011;62267;50.112;8.704;2022-12-31T16:10:16;6.30;;;2.93;;
1262;SDS011;62267;50.112;8.704;2022-12-31T16:12:45;4.90;;;2.90;;
1262;SDS011;62267;50.112;8.704;2022-12-31T16:15:20;3.13;;;2.93;;
1262;SDS011;62267;50.112;8.704;2022-12-31T16:18:02;2.90;;;2.70;;
1262;SDS011;62267;50.112;8.704;2022-12-31T16:20:31;5.00;;;4.03;;
1262;SDS011;62267;50.112;8.704;2022-12-31T16:22:59;4.30;;;3.30;;
1262;SDS011;62267;50.112;8.704;2022-12-31T16:25:29;4.07;;;3.60;;
1262;SDS011;62267;50.112;8.704;2022-12-31T16:27:58;5.60;;;4.20;;
1262;SDS011;62267;50.112;8.704;2022-12-31T16:30:31;4.23;;;3.83;;
1262;SDS011;62267;50.112;8.704;2022-12-31T16:33:02;3.80;;;3.50;;
1262;SDS011;62267;50.112;8.704;2022-12-31T16:35:31;3.57;;;3.27;;
1262;SDS011;62267;50.112;8.704;2022-12-31T16:37:59;3.77;;;3.47;;
1262;SDS011;62267;50.112;8.704;2022-12-31T16:40:26;2.57;;;2.47;;
1262;SDS011;62267;50.112;8.704;2022-12-31T16:42:54;6.53;;;5.67;;
1262;SDS011;62267;50.112;8.704;2022-12-31T16:45:28;5.70;;;5.20;;
1262;SDS011;62267;50.112;8.704;2022-12-31T16:48:15;3.80;;;3.50;;
1262;SDS011;62267;50.112;8.704;2022-12-31T16:50:44;4.03;;;3.00;;
1262;SDS011;62267;50.112;8.704;2022-12-31T16:53:13;2.87;;;2.60;;
1262;SDS011;62267;50.112;8.704;2022-12-31T16:55:42;3.20;;;3.00;;
1262;SDS011;62267;50.112;8.704;2022-12-31T16:58:17;3.87;;;3.00;;
1262;SDS011;62267;50.112;8.704;2022-12-31T17:00:46;3.10;;;2.80;;
1262;SDS011;62267;50.112;8.704;2022-12-31T17:05:53;3.20;;;3.00;;
1262;SDS011;62267;50.112;8.704;2022-12-31T17:08:21;4.10;;;3.80;;
1262;SDS011;62267;50.112;8.704;2022-12-31T17:10:49;3.47;;;3.10;;
1262;SDS011;62267;50.112;8.704;2022-12-31T17:13:22;3.63;;;3.33;;
1262;SDS011;62267;50.112;8.704;2022-12-31T17:15:55;2.87;;;2.67;;
1262;SDS011;62267;50.112;8.704;2022-12-31T17:18:24;3.80;;;3.50;;
1262;SDS011;62267;50.112;8.704;2022-12-31T17:20:52;3.53;;;3.23;;
1262;SDS011;62267;50.112;8.704;2022-12-31T17:23:24;4.07;;;3.50;;
1262;SDS011;62267;50.112;8.704;2022-12-31T17:25:59;3.17;;;2.87;;
1262;SDS011;62267;50.112;8.704;2022-12-31T17:28:27;3.60;;;3.07;;
1262;SDS011;62267;50.112;8.704;2022-12-31T17:30:58;3.47;;;3.03;;
1262;SDS011;62267;50.112;8.704;2022-12-31T17:33:27;4.20;;;3.90;;
1262;SDS011;62267;50.112;8.704;2022-12-31T17:35:55;4.20;;;3.60;;
1262;SDS011;62267;50.112;8.704;2022-12-31T17:43:21;4.80;;;3.50;;
1262;SDS011;62267;50.112;8.704;2022-12-31T17:45:51;4.97;;;3.30;;
1262;SDS011;62267;50.112;8.704;2022-12-31T17:48:21;7.70;;;5.00;;
1262;SDS011;62267;50.112;8.704;2022-12-31T17:50:51;3.43;;;3.10;;
1262;SDS011;62267;50.112;8.704;2022-12-31T17:53:19;5.77;;;3.70;;
1262;SDS011;62267;50.112;8.704;2022-12-31T17:55:47;3.80;;;3.50;;
1262;SDS011;62267;50.112;8.704;2022-12-31T17:58:20;4.83;;;3.60;;
1262;SDS011;62267;50.112;8.704;2022-12-31T18:00:55;6.27;;;5.67;;
1262;SDS011;62267;50.112;8.704;2022-12-31T18:03:22;4.27;;;3.87;;
1262;SDS011;62267;50.112;8.704;2022-12-31T18:05:50;5.03;;;4.63;;
1262;SDS011;62267;50.112;8.704;2022-12-31T18:08:17;4.03;;;3.63;;
1262;SDS011;62267;50.112;8.704;2022-12-31T18:10:44;5.30;;;4.70;;
1262;SDS011;62267;50.112;8.704;2022-12-31T18:13:14;6.10;;;5.40;;
1262;SDS011;62267;50.112;8.704;2022-12-31T18:15:43;5.50;;;4.97;;
1262;SDS011;62267;50.112;8.704;2022-12-31T18:18:20;7.40;;;6.70;;
1262;SDS011;62267;50.112;8.704;2022-12-31T18:21:01;5.30;;;4.77;;
1262;SDS011;62267;50.112;8.704;2022-12-31T18:23:36;6.30;;;5.60;;
1262;SDS011;62267;50.112;8.704;2022-12-31T18:26:05;6.53;;;5.97;;
1262;SDS011;62267;50.112;8.704;2022-12-31T18:28:32;6.20;;;5.70;;